createdAt,value
2022-08-26T00:00:51.376Z,99.90
2022-08-26T00:03:18.409Z,99.90
2022-08-26T00:05:45.399Z,99.90
2022-08-26T00:08:12.990Z,99.90
2022-08-26T00:10:40.381Z,99.90
2022-08-26T00:13:07.427Z,99.90
2022-08-26T00:15:35.860Z,99.90
2022-08-26T00:18:02.714Z,99.90
2022-08-26T00:20:30.893Z,99.90
2022-08-26T00:22:57.701Z,99.90
2022-08-26T00:25:25.364Z,99.90
2022-08-26T00:27:52.253Z,99.90
2022-08-26T00:30:21.391Z,99.90
2022-08-26T00:32:49.954Z,99.90
2022-08-26T00:35:16.961Z,99.90
2022-08-26T00:37:43.823Z,99.90
2022-08-26T00:40:12.328Z,99.90
2022-08-26T00:42:39.191Z,99.90
2022-08-26T00:45:13.030Z,99.90
2022-08-26T00:47:45.129Z,99.90
2022-08-26T00:50:15.560Z,99.90
2022-08-26T00:52:42.346Z,99.90
2022-08-26T00:55:22.235Z,99.90
2022-08-26T00:57:49.348Z,99.90
2022-08-26T01:00:17.937Z,99.90
2022-08-26T01:02:46.926Z,99.90
2022-08-26T01:05:14.388Z,99.90
2022-08-26T01:07:41.188Z,99.90
2022-08-26T01:10:09.296Z,99.90
2022-08-26T01:12:41.664Z,99.90
2022-08-26T01:15:10.120Z,99.90
2022-08-26T01:17:38.618Z,99.90
2022-08-26T01:20:25.956Z,99.90
2022-08-26T01:22:55.734Z,99.90
2022-08-26T01:25:22.671Z,99.90
2022-08-26T01:27:49.690Z,99.90
2022-08-26T01:30:17.862Z,99.90
2022-08-26T01:32:44.790Z,99.90
2022-08-26T01:35:11.554Z,99.90
2022-08-26T01:37:39.034Z,99.90
2022-08-26T01:40:08.389Z,99.90
2022-08-26T01:42:35.656Z,99.90
2022-08-26T01:45:06.732Z,99.90
2022-08-26T01:47:33.677Z,99.90
2022-08-26T01:50:01.479Z,99.90
2022-08-26T01:52:30.195Z,99.90
2022-08-26T01:54:57.394Z,99.90
2022-08-26T01:57:24.266Z,99.90
2022-08-26T01:59:51.101Z,99.90
2022-08-26T02:02:17.914Z,99.90
2022-08-26T02:04:49.950Z,99.90
2022-08-26T02:07:16.966Z,99.90
2022-08-26T02:09:45.141Z,99.90
2022-08-26T02:12:12.551Z,99.90
2022-08-26T02:14:43.984Z,99.90
2022-08-26T02:17:11.310Z,99.90
2022-08-26T02:19:39.452Z,99.90
2022-08-26T02:22:07.249Z,99.90
2022-08-26T02:24:51.001Z,99.90
2022-08-26T02:27:18.188Z,99.90
2022-08-26T02:29:45.747Z,99.90
2022-08-26T02:32:12.775Z,99.90
2022-08-26T02:34:45.603Z,99.90
2022-08-26T02:37:13.335Z,99.90
2022-08-26T02:39:40.618Z,99.90
2022-08-26T02:42:07.439Z,99.90
2022-08-26T02:44:34.541Z,99.90
2022-08-26T02:47:01.489Z,99.90
2022-08-26T02:49:30.801Z,99.90
2022-08-26T02:51:57.920Z,99.90
2022-08-26T02:54:28.797Z,99.90
2022-08-26T02:56:56.371Z,99.90
2022-08-26T02:59:24.448Z,99.90
2022-08-26T03:01:51.799Z,99.90
2022-08-26T03:04:18.616Z,99.90
2022-08-26T03:06:52.762Z,99.90
2022-08-26T03:09:19.868Z,99.90
2022-08-26T03:11:47.434Z,99.90
2022-08-26T03:14:14.285Z,99.90
2022-08-26T03:16:41.059Z,99.90
2022-08-26T03:19:08.839Z,99.90
2022-08-26T03:21:36.193Z,99.90
2022-08-26T03:24:03.144Z,99.90
2022-08-26T03:26:30.856Z,99.90
2022-08-26T03:29:16.239Z,99.90
2022-08-26T03:31:43.521Z,99.90
2022-08-26T03:34:11.303Z,99.90
2022-08-26T03:36:38.733Z,99.90
2022-08-26T03:39:05.860Z,99.90
2022-08-26T03:41:33.990Z,99.90
2022-08-26T03:44:01.962Z,99.90
2022-08-26T03:46:30.847Z,99.90
2022-08-26T03:48:58.037Z,99.90
2022-08-26T03:51:25.691Z,99.90
2022-08-26T03:53:53.187Z,99.90
2022-08-26T03:56:19.964Z,99.90
2022-08-26T03:58:46.712Z,99.90
2022-08-26T04:01:13.574Z,99.90
2022-08-26T04:04:00.392Z,99.90
2022-08-26T04:06:27.689Z,99.90
2022-08-26T04:08:55.181Z,99.90
2022-08-26T04:11:22.815Z,99.90
2022-08-26T04:13:50.003Z,99.90
2022-08-26T04:16:16.923Z,99.90
2022-08-26T04:18:46.784Z,99.90
2022-08-26T04:21:15.351Z,99.90
2022-08-26T04:23:47.751Z,99.90
2022-08-26T04:26:15.253Z,99.90
2022-08-26T04:28:42.034Z,99.90
2022-08-26T04:31:15.021Z,99.90
2022-08-26T04:33:45.704Z,99.90
2022-08-26T04:36:13.378Z,99.90
2022-08-26T04:38:40.146Z,99.90
2022-08-26T04:41:15.278Z,99.90
2022-08-26T04:43:44.105Z,99.90
2022-08-26T04:46:13.020Z,99.90
2022-08-26T04:48:41.365Z,99.90
2022-08-26T04:51:09.191Z,99.90
2022-08-26T04:53:36.668Z,99.90
2022-08-26T04:56:03.929Z,99.90
2022-08-26T04:58:31.182Z,99.90
2022-08-26T05:00:58.560Z,99.90
2022-08-26T05:03:27.368Z,99.90
2022-08-26T05:05:57.549Z,99.90
2022-08-26T05:08:24.410Z,99.90
2022-08-26T05:10:52.935Z,99.90
2022-08-26T05:13:20.576Z,99.90
2022-08-26T05:15:47.698Z,99.90
2022-08-26T05:18:16.464Z,99.90
2022-08-26T05:20:44.317Z,99.90
2022-08-26T05:23:11.939Z,99.90
2022-08-26T05:25:40.492Z,99.90
2022-08-26T05:28:07.776Z,99.90
2022-08-26T05:30:34.651Z,99.90
2022-08-26T05:33:01.937Z,99.90
2022-08-26T05:35:32.118Z,99.90
2022-08-26T05:38:00.611Z,99.90
2022-08-26T05:40:27.678Z,99.90
2022-08-26T05:42:54.898Z,99.90
2022-08-26T05:45:24.276Z,99.90
2022-08-26T05:47:51.314Z,99.90
2022-08-26T05:50:21.942Z,99.90
2022-08-26T05:52:49.672Z,99.90
2022-08-26T05:55:16.754Z,99.90
2022-08-26T05:57:45.369Z,99.90
2022-08-26T06:00:12.846Z,99.90
2022-08-26T06:02:40.102Z,99.90
2022-08-26T06:05:07.625Z,99.90
2022-08-26T06:07:53.115Z,99.90
2022-08-26T06:10:32.059Z,99.90
2022-08-26T06:13:03.209Z,99.90
2022-08-26T06:15:39.558Z,99.90
2022-08-26T06:18:09.118Z,99.90
2022-08-26T06:20:36.752Z,99.90
2022-08-26T06:23:22.395Z,99.90
2022-08-26T06:25:50.598Z,99.90
2022-08-26T06:28:17.550Z,99.90
2022-08-26T06:30:44.884Z,99.90
2022-08-26T06:33:11.862Z,99.90
2022-08-26T06:35:39.541Z,99.90
2022-08-26T06:38:06.393Z,99.90
2022-08-26T06:40:33.317Z,99.90
2022-08-26T06:43:00.593Z,99.90
2022-08-26T06:45:27.861Z,99.90
2022-08-26T06:47:55.392Z,99.90
2022-08-26T06:50:22.201Z,99.90
2022-08-26T06:52:49.245Z,99.90
2022-08-26T06:55:16.091Z,99.90
2022-08-26T06:57:45.123Z,99.90
2022-08-26T07:00:13.058Z,99.90
2022-08-26T07:02:40.830Z,99.90
2022-08-26T07:05:13.813Z,99.90
2022-08-26T07:07:40.601Z,99.90
2022-08-26T07:10:08.608Z,99.90
2022-08-26T07:12:36.159Z,99.90
2022-08-26T07:15:03.071Z,99.90
2022-08-26T07:17:29.962Z,99.90
2022-08-26T07:19:56.758Z,99.90
2022-08-26T07:22:23.571Z,99.90
2022-08-26T07:24:50.961Z,99.90
2022-08-26T07:27:17.830Z,99.90
2022-08-26T07:29:45.056Z,99.90
2022-08-26T07:32:13.332Z,99.90
2022-08-26T07:34:40.605Z,99.90
2022-08-26T07:37:09.026Z,99.90
2022-08-26T07:39:35.918Z,99.90
2022-08-26T07:42:07.369Z,99.90
2022-08-26T07:44:35.375Z,99.90
2022-08-26T07:47:02.252Z,99.90
2022-08-26T07:49:29.917Z,99.90
2022-08-26T07:51:56.871Z,99.90
2022-08-26T07:54:26.798Z,99.90
2022-08-26T07:56:54.257Z,99.90
2022-08-26T07:59:23.437Z,99.90
2022-08-26T08:01:50.503Z,99.90
2022-08-26T08:04:17.827Z,99.90
2022-08-26T08:06:44.930Z,99.90
2022-08-26T08:09:12.342Z,99.90
2022-08-26T08:11:39.489Z,99.90
2022-08-26T08:14:08.500Z,99.90
2022-08-26T08:16:41.894Z,99.90
2022-08-26T08:19:13.347Z,99.90
2022-08-26T08:21:41.463Z,99.90
2022-08-26T08:24:08.693Z,99.90
2022-08-26T08:26:35.503Z,99.90
2022-08-26T08:29:05.717Z,99.90
2022-08-26T08:34:19.899Z,99.90
2022-08-26T08:36:48.586Z,99.90
2022-08-26T08:39:18.153Z,99.90
2022-08-26T08:41:54.659Z,99.90
2022-08-26T08:46:56.452Z,99.90
2022-08-26T08:49:26.002Z,99.90
2022-08-26T08:52:07.309Z,99.90
2022-08-26T08:54:34.190Z,99.90
2022-08-26T08:57:20.938Z,99.90
2022-08-26T08:59:53.352Z,99.90
2022-08-26T09:02:25.702Z,99.90
2022-08-26T09:04:58.218Z,99.90
2022-08-26T09:07:26.305Z,99.90
2022-08-26T09:09:58.373Z,99.90
2022-08-26T09:12:29.853Z,99.90
2022-08-26T09:15:16.970Z,99.90
2022-08-26T09:17:47.127Z,99.90
2022-08-26T09:20:27.116Z,99.90
2022-08-26T09:22:54.066Z,99.90
2022-08-26T09:25:21.191Z,99.90
2022-08-26T09:27:50.262Z,99.90
2022-08-26T09:30:24.959Z,99.90
2022-08-26T09:33:18.322Z,99.90
2022-08-26T09:35:47.506Z,99.90
2022-08-26T09:38:26.745Z,99.90
2022-08-26T09:41:01.559Z,99.90
2022-08-26T09:43:29.127Z,99.90
2022-08-26T09:46:10.424Z,99.90
2022-08-26T09:48:41.018Z,99.90
2022-08-26T09:51:21.838Z,99.90
2022-08-26T09:53:52.528Z,99.90
2022-08-26T09:56:22.161Z,99.90
2022-08-26T09:58:49.847Z,99.90
2022-08-26T10:01:30.166Z,99.90
2022-08-26T10:04:06.420Z,99.90
2022-08-26T10:06:34.555Z,99.90
2022-08-26T10:09:04.540Z,99.90
2022-08-26T10:11:42.080Z,99.70
2022-08-26T10:14:08.919Z,99.90
2022-08-26T10:16:38.966Z,99.50
2022-08-26T10:19:10.002Z,99.00
2022-08-26T10:21:38.392Z,98.80
2022-08-26T10:24:05.504Z,98.00
2022-08-26T10:26:35.358Z,97.20
2022-08-26T10:29:10.491Z,97.20
2022-08-26T10:31:58.813Z,98.50
2022-08-26T10:34:31.696Z,98.70
2022-08-26T10:37:15.565Z,99.40
2022-08-26T10:40:02.387Z,98.00
2022-08-26T10:42:35.339Z,96.20
2022-08-26T10:45:11.996Z,94.70
2022-08-26T10:47:45.400Z,94.40
2022-08-26T10:50:12.817Z,93.40
2022-08-26T10:52:39.793Z,94.70
2022-08-26T10:55:10.360Z,94.80
2022-08-26T10:57:40.184Z,92.30
2022-08-26T11:00:28.149Z,92.00
2022-08-26T11:02:58.674Z,91.30
2022-08-26T11:05:25.957Z,91.30
2022-08-26T11:07:56.441Z,90.70
2022-08-26T11:10:23.965Z,90.20
2022-08-26T11:13:09.229Z,88.90
2022-08-26T11:15:39.131Z,88.10
2022-08-26T11:18:06.053Z,86.60
2022-08-26T11:20:32.947Z,83.80
2022-08-26T11:23:23.269Z,86.30
2022-08-26T11:25:57.115Z,88.10
2022-08-26T11:28:44.229Z,85.20
2022-08-26T11:31:11.228Z,82.10
2022-08-26T11:33:50.939Z,80.30
2022-08-26T11:36:33.236Z,79.20
2022-08-26T11:39:02.770Z,80.20
2022-08-26T11:41:30.021Z,82.40
2022-08-26T11:43:57.409Z,80.60
2022-08-26T11:46:25.324Z,80.90
2022-08-26T11:48:52.165Z,80.90
2022-08-26T11:51:18.995Z,79.00
2022-08-26T11:53:47.249Z,80.90
2022-08-26T11:56:17.008Z,77.60
2022-08-26T11:58:45.022Z,77.40
2022-08-26T12:01:12.214Z,75.00
2022-08-26T12:03:40.505Z,74.50
2022-08-26T12:06:11.536Z,74.00
2022-08-26T12:08:43.843Z,75.50
2022-08-26T12:11:21.413Z,75.50
2022-08-26T12:14:05.466Z,73.30
2022-08-26T12:16:37.095Z,73.20
2022-08-26T12:19:26.317Z,71.10
2022-08-26T12:21:59.295Z,69.80
2022-08-26T12:24:26.438Z,69.20
2022-08-26T12:27:04.514Z,67.50
2022-08-26T12:29:31.661Z,66.20
2022-08-26T12:32:09.200Z,65.30
2022-08-26T12:34:36.370Z,64.40
2022-08-26T12:37:03.270Z,65.00
2022-08-26T12:39:35.656Z,63.90
2022-08-26T12:42:08.214Z,64.00
2022-08-26T12:44:58.609Z,67.00
2022-08-26T12:47:42.377Z,69.20
2022-08-26T12:50:10.217Z,66.90
2022-08-26T12:52:44.253Z,64.50
2022-08-26T12:55:21.974Z,64.00
2022-08-26T12:57:48.869Z,63.20
2022-08-26T13:00:31.175Z,66.30
2022-08-26T13:02:58.714Z,68.50
2022-08-26T13:05:27.710Z,69.00
2022-08-26T13:08:14.482Z,68.20
2022-08-26T13:10:42.596Z,66.60
2022-08-26T13:13:09.626Z,65.90
2022-08-26T13:15:36.707Z,63.80
2022-08-26T13:18:03.813Z,63.30
2022-08-26T13:20:30.911Z,63.40
2022-08-26T13:23:09.517Z,62.00
2022-08-26T13:25:36.618Z,61.20
2022-08-26T13:28:03.493Z,60.10
2022-08-26T13:30:30.591Z,61.00
2022-08-26T13:32:57.854Z,61.70
2022-08-26T13:35:24.793Z,61.80
2022-08-26T13:37:51.791Z,62.60
2022-08-26T13:40:18.800Z,63.60
2022-08-26T13:42:49.563Z,64.30
2022-08-26T13:45:27.860Z,65.00
2022-08-26T13:48:24.043Z,66.50
2022-08-26T13:51:29.843Z,66.90
2022-08-26T13:53:56.762Z,66.90
2022-08-26T13:56:23.859Z,70.00
2022-08-26T13:58:50.767Z,69.50
2022-08-26T14:01:17.843Z,69.90
2022-08-26T14:03:44.986Z,69.30
2022-08-26T14:06:12.198Z,70.70
2022-08-26T14:08:39.424Z,69.70
2022-08-26T14:11:06.476Z,70.70
2022-08-26T14:13:33.595Z,71.70
2022-08-26T14:16:01.622Z,71.40
2022-08-26T14:18:32.402Z,71.10
2022-08-26T14:20:59.351Z,71.90
2022-08-26T14:23:26.251Z,70.90
2022-08-26T14:25:53.251Z,71.40
2022-08-26T14:28:20.123Z,70.90
2022-08-26T14:30:48.016Z,70.10
2022-08-26T14:33:15.005Z,71.20
2022-08-26T14:35:48.865Z,71.60
2022-08-26T14:38:16.858Z,72.30
2022-08-26T14:40:45.060Z,72.30
2022-08-26T14:43:13.960Z,72.90
2022-08-26T14:48:09.883Z,73.40
2022-08-26T14:50:36.906Z,73.80
2022-08-26T14:53:22.527Z,73.70
2022-08-26T14:55:50.577Z,72.80
2022-08-26T14:58:17.399Z,70.60
2022-08-26T15:00:44.246Z,70.40
2022-08-26T15:03:11.264Z,71.20
2022-08-26T15:05:39.907Z,71.40
2022-08-26T15:08:10.503Z,71.80
2022-08-26T15:10:37.748Z,72.10
2022-08-26T15:13:04.670Z,73.20
2022-08-26T15:15:31.510Z,72.10
2022-08-26T15:17:58.320Z,71.80
2022-08-26T15:20:25.235Z,72.40
2022-08-26T15:22:52.111Z,71.90
2022-08-26T15:25:20.141Z,72.40
2022-08-26T15:27:46.943Z,72.30
2022-08-26T15:30:13.777Z,71.70
2022-08-26T15:32:40.834Z,71.90
2022-08-26T15:35:09.308Z,73.60
2022-08-26T15:37:36.474Z,73.40
2022-08-26T15:40:04.100Z,73.90
2022-08-26T15:42:31.150Z,73.70
2022-08-26T15:44:58.001Z,74.90
2022-08-26T15:47:24.995Z,74.80
2022-08-26T15:49:51.825Z,74.40
2022-08-26T15:52:18.651Z,73.60
2022-08-26T15:54:45.543Z,73.40
2022-08-26T15:57:14.379Z,74.30
2022-08-26T15:59:42.212Z,74.10
2022-08-26T16:02:09.578Z,73.70
2022-08-26T16:04:36.435Z,74.60
2022-08-26T16:07:03.426Z,74.80
2022-08-26T16:09:30.834Z,75.70
2022-08-26T16:11:57.739Z,76.50
2022-08-26T16:14:24.969Z,75.30
2022-08-26T16:16:51.765Z,74.90
2022-08-26T16:19:18.616Z,76.00
2022-08-26T16:21:45.536Z,74.10
2022-08-26T16:24:12.809Z,74.80
2022-08-26T16:26:39.858Z,74.90
2022-08-26T16:29:08.764Z,75.20
2022-08-26T16:31:35.840Z,75.50
2022-08-26T16:34:02.775Z,76.40
2022-08-26T16:36:29.652Z,76.30
2022-08-26T16:38:56.643Z,76.40
2022-08-26T16:41:24.141Z,77.10
2022-08-26T16:43:50.985Z,79.80
2022-08-26T16:46:18.516Z,81.90
2022-08-26T16:48:45.455Z,83.70
2022-08-26T16:51:13.047Z,85.00
2022-08-26T16:53:39.860Z,85.20
2022-08-26T16:56:06.798Z,85.50
2022-08-26T16:58:34.115Z,85.50
2022-08-26T17:01:01.320Z,85.90
2022-08-26T17:03:28.201Z,86.40
2022-08-26T17:05:54.991Z,86.90
2022-08-26T17:08:28.344Z,87.70
2022-08-26T17:10:56.846Z,88.10
2022-08-26T17:13:35.529Z,89.20
2022-08-26T17:16:04.965Z,89.50
2022-08-26T17:18:32.893Z,90.50
2022-08-26T17:21:03.583Z,91.40
2022-08-26T17:23:30.472Z,91.80
2022-08-26T17:25:57.300Z,92.50
2022-08-26T17:28:24.116Z,92.90
2022-08-26T17:30:50.963Z,93.40
2022-08-26T17:33:19.542Z,94.30
2022-08-26T17:35:51.314Z,95.20
2022-08-26T17:38:18.085Z,96.20
2022-08-26T17:40:44.834Z,96.60
2022-08-26T17:43:12.479Z,97.00
2022-08-26T17:45:40.403Z,98.00
2022-08-26T17:48:07.415Z,98.70
2022-08-26T17:50:34.382Z,98.90
2022-08-26T17:53:01.160Z,99.60
2022-08-26T17:55:28.013Z,99.50
2022-08-26T17:57:54.845Z,99.90
2022-08-26T18:00:26.453Z,99.90
2022-08-26T18:02:54.244Z,99.90
2022-08-26T18:05:22.331Z,99.90
2022-08-26T18:07:49.104Z,99.90
2022-08-26T18:10:16.684Z,99.90
2022-08-26T18:12:43.473Z,99.90
2022-08-26T18:15:10.608Z,99.90
2022-08-26T18:17:39.100Z,99.90
2022-08-26T18:20:07.418Z,99.90
2022-08-26T18:22:34.240Z,99.90
2022-08-26T18:25:01.058Z,99.90
2022-08-26T18:27:27.886Z,99.90
2022-08-26T18:29:56.023Z,99.90
2022-08-26T18:32:22.796Z,99.90
2022-08-26T18:34:49.601Z,99.90
2022-08-26T18:37:16.788Z,99.90
2022-08-26T18:39:43.595Z,99.90
2022-08-26T18:42:10.419Z,99.90
2022-08-26T18:44:37.192Z,99.90
2022-08-26T18:47:04.372Z,99.90
2022-08-26T18:49:31.155Z,99.90
2022-08-26T18:51:57.975Z,99.90
2022-08-26T18:54:24.736Z,99.90
2022-08-26T18:56:51.823Z,99.90
2022-08-26T18:59:18.649Z,99.90
2022-08-26T19:01:45.565Z,99.90
2022-08-26T19:04:15.522Z,99.90
2022-08-26T19:06:42.692Z,99.90
2022-08-26T19:09:09.810Z,99.90
2022-08-26T19:11:42.762Z,99.90
2022-08-26T19:14:10.860Z,99.90
2022-08-26T19:16:38.816Z,99.90
2022-08-26T19:19:05.678Z,99.90
2022-08-26T19:21:33.192Z,99.90
2022-08-26T19:24:00.464Z,99.90
2022-08-26T19:26:27.387Z,99.90
2022-08-26T19:28:54.511Z,99.90
2022-08-26T19:31:21.449Z,99.90
2022-08-26T19:33:48.284Z,99.90
2022-08-26T19:36:17.597Z,99.90
2022-08-26T19:38:44.799Z,99.90
2022-08-26T19:41:16.192Z,99.90
2022-08-26T19:43:42.980Z,99.90
2022-08-26T19:46:13.643Z,99.90
2022-08-26T19:48:43.967Z,99.90
2022-08-26T19:51:15.744Z,99.90
2022-08-26T19:53:43.743Z,99.90
2022-08-26T19:56:10.672Z,99.90
2022-08-26T19:58:37.461Z,99.90
2022-08-26T20:01:04.778Z,99.90
2022-08-26T20:03:32.998Z,99.90
2022-08-26T20:06:00.149Z,99.90
2022-08-26T20:08:28.578Z,99.90
2022-08-26T20:10:57.868Z,99.90
2022-08-26T20:13:24.639Z,99.90
2022-08-26T20:15:51.511Z,99.90
2022-08-26T20:18:36.929Z,99.90
2022-08-26T20:21:22.171Z,99.90
2022-08-26T20:23:49.017Z,99.90
2022-08-26T20:26:15.898Z,99.90
2022-08-26T20:28:42.768Z,99.90
2022-08-26T20:31:10.736Z,99.90
2022-08-26T20:33:46.081Z,99.90
2022-08-26T20:36:13.771Z,99.90
2022-08-26T20:38:40.752Z,99.90
2022-08-26T20:41:07.570Z,99.90
2022-08-26T20:43:34.386Z,99.90
2022-08-26T20:46:01.411Z,99.90
2022-08-26T20:48:28.324Z,99.90
2022-08-26T20:50:59.017Z,99.90
2022-08-26T20:53:26.473Z,99.90
2022-08-26T20:55:53.922Z,99.90
2022-08-26T20:58:21.711Z,99.90
2022-08-26T21:00:48.750Z,99.90
2022-08-26T21:03:15.613Z,99.90
2022-08-26T21:05:42.620Z,99.90
2022-08-26T21:08:09.630Z,99.90
2022-08-26T21:10:39.430Z,99.90
2022-08-26T21:13:06.337Z,99.90
2022-08-26T21:15:33.280Z,99.90
2022-08-26T21:18:00.366Z,99.90
2022-08-26T21:20:27.209Z,99.90
2022-08-26T21:22:54.259Z,99.90
2022-08-26T21:25:21.095Z,99.90
2022-08-26T21:27:47.959Z,99.90
2022-08-26T21:30:15.194Z,99.90
2022-08-26T21:32:42.135Z,99.90
2022-08-26T21:35:09.249Z,99.90
2022-08-26T21:37:36.057Z,99.90
2022-08-26T21:40:04.313Z,99.90
2022-08-26T21:42:32.501Z,99.90
2022-08-26T21:44:59.459Z,99.90
2022-08-26T21:47:26.287Z,99.90
2022-08-26T21:49:53.359Z,99.90
2022-08-26T21:52:20.215Z,99.90
2022-08-26T21:54:49.289Z,99.90
2022-08-26T21:57:16.971Z,99.90
2022-08-26T21:59:43.860Z,99.90
2022-08-26T22:02:11.250Z,99.90
2022-08-26T22:04:38.146Z,99.90
2022-08-26T22:07:05.079Z,99.90
2022-08-26T22:09:32.364Z,99.90
2022-08-26T22:11:59.318Z,99.90
2022-08-26T22:14:30.507Z,99.90
2022-08-26T22:16:58.187Z,99.90
2022-08-26T22:19:25.085Z,99.90
2022-08-26T22:21:52.917Z,99.90
2022-08-26T22:24:20.178Z,99.90
2022-08-26T22:26:47.196Z,99.90
2022-08-26T22:29:14.691Z,99.90
2022-08-26T22:31:42.016Z,99.90
2022-08-26T22:34:09.793Z,99.90
2022-08-26T22:36:42.662Z,99.90
2022-08-26T22:39:11.842Z,99.90
2022-08-26T22:41:38.724Z,99.90
2022-08-26T22:44:05.576Z,99.90
2022-08-26T22:46:34.896Z,99.90
2022-08-26T22:49:01.866Z,99.90
2022-08-26T22:51:28.869Z,99.90
2022-08-26T22:53:55.716Z,99.90
2022-08-26T22:56:22.629Z,99.90
2022-08-26T22:58:49.495Z,99.90
2022-08-26T23:01:17.044Z,99.90
2022-08-26T23:03:44.287Z,99.90
2022-08-26T23:06:11.203Z,99.90
2022-08-26T23:08:38.298Z,99.90
2022-08-26T23:11:08.711Z,99.90
2022-08-26T23:13:36.282Z,99.90
2022-08-26T23:16:03.998Z,99.90
2022-08-26T23:18:30.851Z,99.90
2022-08-26T23:20:57.713Z,99.90
2022-08-26T23:23:24.575Z,99.90
2022-08-26T23:25:51.401Z,99.90
2022-08-26T23:28:18.216Z,99.90
2022-08-26T23:30:45.016Z,99.90
2022-08-26T23:33:11.859Z,99.90
2022-08-26T23:35:38.706Z,99.90
2022-08-26T23:38:10.136Z,99.90
2022-08-26T23:40:40.917Z,99.90
2022-08-26T23:43:08.195Z,99.90
2022-08-26T23:45:35.150Z,99.90
2022-08-26T23:48:02.070Z,99.90
2022-08-26T23:50:49.274Z,99.90
2022-08-26T23:53:20.097Z,99.90
2022-08-26T23:55:48.314Z,99.90
2022-08-26T23:58:15.916Z,99.90
